Time;durP1;ratioP1;P1;durP2;ratioP2;P2;SDS_P1;SDS_P2;PMS_P1;PMS_P2;Temp;Humidity;BMP_temperature;BMP_pressure;BME280_temperature;BME280_humidity;BME280_pressure;Samples;Min_cycle;Max_cycle;Signal;HPM_P1;HPM_P2
2022/08/29 00:01:57;;;;;;;4.95;1.70;;;;;;;18.03;63.69;102213.66;5072628;28;20108;-50
2022/08/29 00:04:23;;;;;;;6.68;2.00;;;;;;;17.98;64.13;102210.09;5075172;28;20035;-48
2022/08/29 00:06:48;;;;;;;3.42;1.55;;;;;;;17.94;63.99;102213.47;5074968;28;20020;-44
2022/08/29 00:09:14;;;;;;;8.88;2.17;;;;;;;17.92;64.00;102210.84;5069534;28;20065;-47
2022/08/29 00:11:39;;;;;;;5.32;1.92;;;;;;;17.95;63.78;102207.41;5076525;28;20162;-48
2022/08/29 00:14:04;;;;;;;6.15;1.80;;;;;;;17.91;64.18;102203.00;5075313;28;20735;-46
2022/08/29 00:16:30;;;;;;;5.60;1.60;;;;;;;17.91;64.53;102210.81;5069446;28;20032;-49
2022/08/29 00:18:56;;;;;;;5.35;1.63;;;;;;;17.79;64.44;102216.66;5073684;28;20389;-49
2022/08/29 00:21:21;;;;;;;5.85;1.90;;;;;;;17.83;64.54;102218.44;5067260;28;20043;-47
2022/08/29 00:23:47;;;;;;;4.75;1.80;;;;;;;17.78;64.44;102214.03;5070769;28;20036;-47
2022/08/29 00:26:12;;;;;;;6.85;2.40;;;;;;;17.70;64.64;102212.09;5073261;28;20036;-50
2022/08/29 00:28:37;;;;;;;5.78;1.90;;;;;;;17.73;65.05;102208.72;5071745;28;20037;-49
2022/08/29 00:31:03;;;;;;;6.30;2.38;;;;;;;17.75;64.76;102203.56;5064996;28;20027;-50
2022/08/29 00:33:29;;;;;;;6.75;2.17;;;;;;;17.74;64.83;102213.09;5069730;28;20024;-49
2022/08/29 00:35:54;;;;;;;5.05;1.85;;;;;;;17.67;64.96;102219.84;5070557;28;20085;-46
2022/08/29 00:38:20;;;;;;;4.53;2.17;;;;;;;17.72;64.80;102211.31;5073388;28;20061;-49
2022/08/29 00:40:49;;;;;;;6.20;1.95;;;;;;;17.70;64.93;102213.81;5069679;28;20595;-50
2022/08/29 00:43:16;;;;;;;5.18;2.15;;;;;;;17.70;64.96;102219.91;5076950;28;20023;-48
2022/08/29 00:45:48;;;;;;;6.50;2.20;;;;;;;17.68;64.97;102219.00;5076527;28;20442;-45
2022/08/29 00:48:14;;;;;;;9.50;2.60;;;;;;;17.67;64.85;102225.06;5070457;28;20487;-50
2022/08/29 00:50:49;;;;;;;6.50;2.35;;;;;;;17.64;64.56;102222.38;5069325;28;20102;-47
2022/08/29 00:53:18;;;;;;;3.58;2.25;;;;;;;17.57;65.35;102227.44;5073380;28;20494;-46
2022/08/29 00:55:46;;;;;;;9.63;2.58;;;;;;;17.54;65.43;102217.84;5067076;28;20043;-47
2022/08/29 00:58:25;;;;;;;6.57;2.50;;;;;;;17.55;65.08;102217.00;5068554;28;20473;-46
2022/08/29 01:00:52;;;;;;;8.63;2.70;;;;;;;17.53;65.28;102220.41;5070558;28;20048;-50
2022/08/29 01:03:17;;;;;;;9.20;2.70;;;;;;;17.51;65.22;102225.56;5067263;28;20053;-50
2022/08/29 01:05:45;;;;;;;7.47;2.70;;;;;;;17.46;65.23;102221.13;5066537;28;20397;-45
2022/08/29 01:08:10;;;;;;;10.07;2.80;;;;;;;17.44;65.36;102215.91;5069464;28;20028;-47
2022/08/29 01:13:30;;;;;;;8.65;2.50;;;;;;;17.44;65.24;102221.09;5074579;28;20051;-50
2022/08/29 01:15:56;;;;;;;7.03;2.33;;;;;;;17.40;65.48;102224.47;5066460;28;20024;-44
2022/08/29 01:18:23;;;;;;;6.82;2.47;;;;;;;17.34;66.07;102221.72;5069962;28;20476;-46
2022/08/29 01:21:17;;;;;;;6.90;3.00;;;;;;;17.40;65.13;102227.94;5073538;28;20028;-50
2022/08/29 01:24:05;;;;;;;10.40;2.58;;;;;;;17.42;65.15;102225.41;5067416;28;20032;-48
2022/08/29 01:26:31;;;;;;;7.60;2.53;;;;;;;17.23;65.87;102225.81;5068199;28;20023;-50
2022/08/29 01:28:57;;;;;;;6.57;2.70;;;;;;;17.21;66.19;102230.09;5069100;28;20548;-45
2022/08/29 01:31:25;;;;;;;5.68;2.70;;;;;;;17.22;66.14;102227.53;5066643;28;20043;-47
2022/08/29 01:33:53;;;;;;;6.53;2.70;;;;;;;17.20;65.81;102226.63;5071479;28;20131;-50
2022/08/29 01:36:23;;;;;;;9.10;2.78;;;;;;;17.13;66.21;102223.03;5072119;28;20024;-47
2022/08/29 01:38:48;;;;;;;6.60;2.50;;;;;;;17.11;66.30;102214.31;5073297;28;20027;-50
2022/08/29 01:41:16;;;;;;;7.05;2.97;;;;;;;17.12;66.19;102212.59;5065321;28;20089;-48
2022/08/29 01:43:47;;;;;;;4.97;2.30;;;;;;;17.12;66.43;102220.41;5069830;28;20387;-49
2022/08/29 01:46:15;;;;;;;6.30;2.95;;;;;;;17.04;66.48;102215.00;5069746;28;20527;-46
2022/08/29 01:48:43;;;;;;;5.47;2.67;;;;;;;17.05;66.54;102214.19;5063374;28;20082;-49
2022/08/29 01:51:09;;;;;;;4.53;2.60;;;;;;;17.08;66.35;102208.16;5069399;28;20544;-47
2022/08/29 01:53:35;;;;;;;6.35;2.40;;;;;;;17.03;66.62;102209.78;5073212;28;20086;-47
2022/08/29 01:56:13;;;;;;;9.27;2.53;;;;;;;17.09;66.16;102215.97;5067680;28;20140;-45
2022/08/29 01:58:39;;;;;;;5.47;2.55;;;;;;;16.95;67.06;102220.00;5069126;28;20028;-50
2022/08/29 02:01:06;;;;;;;4.97;2.50;;;;;;;16.96;66.97;102219.16;5067605;28;20032;-45
2022/08/29 02:03:31;;;;;;;9.27;2.38;;;;;;;16.91;66.66;102223.34;5069451;28;20384;-47
2022/08/29 02:06:00;;;;;;;7.65;2.47;;;;;;;16.93;66.86;102228.56;5070204;28;20040;-47
2022/08/29 02:08:26;;;;;;;8.10;2.72;;;;;;;16.95;66.96;102212.19;5072598;28;20032;-50
2022/08/29 02:10:51;;;;;;;8.32;2.78;;;;;;;16.89;66.90;102223.31;5071613;28;20039;-48
2022/08/29 02:13:17;;;;;;;5.15;2.33;;;;;;;16.87;66.88;102217.22;5066501;28;20043;-48
2022/08/29 02:15:42;;;;;;;8.65;2.80;;;;;;;16.87;67.11;102214.63;5069520;28;20028;-50
2022/08/29 02:18:07;;;;;;;9.38;2.75;;;;;;;16.85;66.98;102210.22;5070510;28;20039;-48
2022/08/29 02:20:33;;;;;;;6.32;2.45;;;;;;;16.85;67.09;102205.03;5066562;28;20032;-50
2022/08/29 02:22:58;;;;;;;6.32;2.67;;;;;;;16.77;67.39;102212.66;5069049;28;20857;-45
2022/08/29 02:25:42;;;;;;;7.32;2.35;;;;;;;16.78;67.35;102214.41;5067202;28;20509;-46
2022/08/29 02:28:12;;;;;;;7.80;2.78;;;;;;;16.74;67.52;102222.94;5071220;28;20028;-47
2022/08/29 02:30:43;;;;;;;7.28;2.78;;;;;;;16.75;67.35;102231.66;5068509;28;20392;-50
2022/08/29 02:33:10;;;;;;;5.65;2.75;;;;;;;16.72;67.56;102227.22;5066024;28;20035;-46
2022/08/29 02:35:36;;;;;;;7.15;2.75;;;;;;;16.68;67.62;102233.16;5066892;28;20036;-50
2022/08/29 02:38:02;;;;;;;5.20;2.70;;;;;;;16.62;67.53;102235.59;5068785;28;20077;-49
2022/08/29 02:40:27;;;;;;;4.90;2.45;;;;;;;16.68;67.40;102245.25;5066594;28;20033;-50
2022/08/29 02:42:54;;;;;;;8.85;2.60;;;;;;;16.63;67.42;102242.56;5068915;28;20032;-50
2022/08/29 02:45:21;;;;;;;7.82;2.72;;;;;;;16.61;67.34;102239.91;5072855;28;20020;-50
2022/08/29 02:47:46;;;;;;;6.38;3.03;;;;;;;16.58;67.54;102239.84;5068017;28;20032;-48
2022/08/29 02:50:12;;;;;;;7.07;2.90;;;;;;;16.57;67.60;102243.28;5070304;28;20043;-50
2022/08/29 02:52:39;;;;;;;4.72;2.90;;;;;;;16.62;67.60;102244.28;5068603;28;20051;-48
2022/08/29 02:55:05;;;;;;;6.68;2.53;;;;;;;16.52;67.85;102246.59;5069823;28;20400;-46
2022/08/29 02:57:30;;;;;;;6.50;3.00;;;;;;;16.45;68.08;102242.97;5069700;28;20053;-49
2022/08/29 02:59:56;;;;;;;9.48;3.00;;;;;;;16.47;68.07;102253.41;5068144;28;20036;-50
2022/08/29 03:02:21;;;;;;;7.43;2.97;;;;;;;16.48;67.91;102253.44;5067944;28;20032;-46
2022/08/29 03:04:46;;;;;;;7.43;2.67;;;;;;;16.50;68.11;102256.06;5065803;28;21834;-45
2022/08/29 03:07:12;;;;;;;7.30;2.40;;;;;;;16.47;68.06;102256.88;5068411;28;20536;-49
2022/08/29 03:09:37;;;;;;;9.27;3.03;;;;;;;16.45;68.18;102248.19;5067212;28;20049;-49
2022/08/29 03:12:02;;;;;;;5.35;2.83;;;;;;;16.48;67.75;102236.97;5068910;28;20138;-47
2022/08/29 03:14:28;;;;;;;9.68;2.90;;;;;;;16.47;67.81;102238.69;5071242;28;20044;-46
2022/08/29 03:16:53;;;;;;;6.00;2.55;;;;;;;16.39;67.93;102236.75;5074090;28;20087;-47
2022/08/29 03:19:19;;;;;;;6.35;2.92;;;;;;;16.34;68.12;102234.91;5070721;28;20032;-46
2022/08/29 03:21:44;;;;;;;6.93;2.67;;;;;;;16.35;68.17;102235.78;5069216;28;20459;-47
2022/08/29 03:24:10;;;;;;;11.57;2.90;;;;;;;16.39;68.00;102240.22;5069335;28;20036;-50
2022/08/29 03:26:35;;;;;;;4.85;2.90;;;;;;;16.29;68.25;102235.63;5070871;28;20435;-49
2022/08/29 03:29:01;;;;;;;7.53;2.60;;;;;;;16.30;68.25;102237.38;5068986;28;20028;-48
2022/08/29 03:31:26;;;;;;;4.85;2.78;;;;;;;16.24;68.36;102232.03;5066257;28;20139;-46
2022/08/29 03:33:52;;;;;;;8.00;2.67;;;;;;;16.30;68.32;102227.00;5071604;28;20450;-45
2022/08/29 03:36:17;;;;;;;6.60;2.53;;;;;;;16.22;68.59;102225.91;5072572;28;20030;-48
2022/08/29 03:38:45;;;;;;;6.38;2.80;;;;;;;16.22;68.54;102224.19;5078996;28;20041;-50
2022/08/29 03:41:11;;;;;;;8.65;2.67;;;;;;;16.19;68.78;102218.91;5069926;28;20050;-50
2022/08/29 03:43:37;;;;;;;4.78;2.65;;;;;;;16.15;68.72;102221.41;5072265;28;20396;-49
2022/08/29 03:46:02;;;;;;;4.88;2.70;;;;;;;16.13;68.71;102217.88;5070585;28;20036;-50
2022/08/29 03:48:28;;;;;;;8.77;2.70;;;;;;;16.12;69.00;102226.50;5070565;28;20496;-47
2022/08/29 03:50:53;;;;;;;9.93;2.70;;;;;;;16.11;69.02;102219.56;5067810;28;20535;-48
2022/08/29 03:53:19;;;;;;;8.75;2.75;;;;;;;16.15;68.91;102211.03;5074587;28;20039;-48
2022/08/29 03:55:45;;;;;;;5.72;2.53;;;;;;;16.13;68.46;102202.31;5063773;28;20047;-47
2022/08/29 03:58:10;;;;;;;6.15;2.47;;;;;;;16.12;68.47;102201.44;5070432;28;20488;-47
2022/08/29 04:00:36;;;;;;;4.82;2.83;;;;;;;16.06;68.89;102202.16;5068267;28;20393;-50
2022/08/29 04:03:01;;;;;;;7.32;3.13;;;;;;;16.08;68.74;102200.50;5069093;28;20130;-50
2022/08/29 04:05:27;;;;;;;5.05;2.83;;;;;;;16.05;68.98;102194.31;5072081;28;20101;-48
2022/08/29 04:07:55;;;;;;;7.97;3.00;;;;;;;16.05;68.78;102192.59;5073253;28;20472;-47
2022/08/29 04:10:25;;;;;;;7.38;2.90;;;;;;;16.05;68.71;102194.31;5074581;28;20441;-49
2022/08/29 04:12:51;;;;;;;5.55;2.70;;;;;;;16.02;68.80;102192.53;5066202;28;20496;-49
2022/08/29 04:15:18;;;;;;;6.20;2.72;;;;;;;15.99;68.86;102195.03;5070362;28;20055;-47
2022/08/29 04:17:43;;;;;;;5.55;2.60;;;;;;;16.00;68.93;102206.28;5071724;28;20484;-49
2022/08/29 04:20:10;;;;;;;6.40;3.15;;;;;;;15.94;69.16;102204.41;5070050;28;20033;-49
2022/08/29 04:22:37;;;;;;;8.32;3.10;;;;;;;15.91;69.20;102206.94;5069750;28;20043;-45
2022/08/29 04:25:05;;;;;;;8.35;3.22;;;;;;;15.86;69.37;102216.28;5071926;28;20804;-46
2022/08/29 04:27:31;;;;;;;10.23;3.00;;;;;;;15.85;69.44;102211.06;5070878;28;20028;-50
2022/08/29 04:29:57;;;;;;;7.32;3.33;;;;;;;15.77;69.39;102209.16;5069047;28;20032;-49
2022/08/29 04:32:22;;;;;;;6.72;3.00;;;;;;;15.84;69.33;102211.91;5070454;28;20028;-46
2022/08/29 04:34:47;;;;;;;6.93;3.45;;;;;;;15.78;69.39;102216.09;5071777;28;20047;-49
2022/08/29 04:37:13;;;;;;;5.97;2.80;;;;;;;15.76;69.61;102214.28;5072955;28;20036;-50
2022/08/29 04:39:39;;;;;;;13.60;3.42;;;;;;;15.76;69.52;102216.88;5064916;28;20432;-45
2022/08/29 04:42:04;;;;;;;7.60;3.05;;;;;;;15.75;69.31;102216.00;5070967;28;20036;-49
2022/08/29 04:44:31;;;;;;;5.70;2.85;;;;;;;15.70;69.26;102214.09;5064697;28;20028;-46
2022/08/29 04:46:56;;;;;;;9.35;3.35;;;;;;;15.70;69.40;102211.50;5063211;28;20043;-49
2022/08/29 04:49:22;;;;;;;5.80;3.28;;;;;;;15.69;69.53;102220.13;5065970;28;20400;-48
2022/08/29 04:51:50;;;;;;;7.00;3.50;;;;;;;15.69;69.51;102214.94;5066167;28;20033;-51
2022/08/29 04:54:15;;;;;;;8.10;3.67;;;;;;;15.71;69.76;102221.94;5066882;28;20481;-51
2022/08/29 04:56:41;;;;;;;8.15;3.20;;;;;;;15.70;69.61;102224.47;5067097;28;20063;-51
2022/08/29 04:59:07;;;;;;;9.38;3.55;;;;;;;15.52;69.96;102223.06;5068360;28;20035;-50
2022/08/29 05:01:32;;;;;;;7.22;3.35;;;;;;;15.60;69.88;102225.91;5066758;28;20151;-48
2022/08/29 05:03:58;;;;;;;11.05;3.80;;;;;;;15.54;70.17;102225.72;5066748;28;20017;-45
2022/08/29 05:06:24;;;;;;;6.93;3.45;;;;;;;15.57;70.22;102226.69;5064750;28;20048;-50
2022/08/29 05:08:51;;;;;;;12.55;3.72;;;;;;;15.62;70.26;102226.84;5067762;28;20031;-51
2022/08/29 05:11:18;;;;;;;7.88;4.00;;;;;;;15.62;70.39;102232.03;5071999;28;20032;-49
2022/08/29 05:13:44;;;;;;;9.90;4.13;;;;;;;15.61;70.21;102226.78;5070773;28;20663;-48
2022/08/29 05:16:12;;;;;;;7.47;3.60;;;;;;;15.60;70.34;102223.31;5068199;28;20093;-50
2022/08/29 05:18:38;;;;;;;10.05;3.97;;;;;;;15.63;70.18;102226.00;5066126;28;20036;-48
2022/08/29 05:21:04;;;;;;;7.90;3.83;;;;;;;15.59;70.59;102233.63;5063333;28;20752;-50
2022/08/29 05:23:30;;;;;;;8.25;4.13;;;;;;;15.62;70.44;102233.72;5067604;28;20024;-47
2022/08/29 05:25:58;;;;;;;7.18;4.00;;;;;;;15.60;70.29;102232.81;5068243;28;20032;-51
2022/08/29 05:28:24;;;;;;;10.73;3.95;;;;;;;15.63;70.65;102241.56;5068957;28;20031;-47
2022/08/29 05:30:49;;;;;;;10.18;4.05;;;;;;;15.65;70.64;102242.50;5068394;28;20139;-48
2022/08/29 05:33:16;;;;;;;8.82;4.05;;;;;;;15.65;70.50;102252.88;5066753;28;20056;-49
2022/08/29 05:35:42;;;;;;;10.13;4.03;;;;;;;15.65;70.39;102252.88;5066849;28;20086;-49
2022/08/29 05:38:08;;;;;;;8.50;3.80;;;;;;;15.61;70.83;102242.34;5070600;28;20036;-49
2022/08/29 05:40:35;;;;;;;8.90;4.40;;;;;;;15.56;70.92;102250.84;5066110;28;20024;-50
2022/08/29 05:43:00;;;;;;;6.95;3.95;;;;;;;15.64;70.66;102252.81;5070789;28;20485;-47
2022/08/29 05:45:26;;;;;;;10.85;4.22;;;;;;;15.67;70.81;102247.72;5075737;28;20115;-51
2022/08/29 05:47:52;;;;;;;7.65;4.32;;;;;;;15.68;70.91;102249.50;5070003;28;20029;-49
2022/08/29 05:50:17;;;;;;;8.85;4.38;;;;;;;15.72;70.67;102249.63;5067467;28;20036;-51
2022/08/29 05:52:43;;;;;;;6.68;4.20;;;;;;;15.73;70.84;102255.69;5069233;28;20027;-45
2022/08/29 05:55:10;;;;;;;9.50;4.53;;;;;;;15.72;70.92;102252.22;5070693;28;20485;-49
2022/08/29 05:57:35;;;;;;;7.28;4.05;;;;;;;15.72;70.75;102256.53;5066211;28;20483;-51
2022/08/29 06:00:01;;;;;;;8.88;4.30;;;;;;;15.75;70.88;102260.06;5071063;28;20119;-49
2022/08/29 06:02:27;;;;;;;9.30;4.30;;;;;;;15.74;70.94;102262.63;5068976;28;20159;-48
2022/08/29 06:04:52;;;;;;;10.00;4.45;;;;;;;15.83;70.99;102257.69;5071341;28;20063;-51
2022/08/29 06:07:18;;;;;;;11.20;4.47;;;;;;;15.86;71.30;102265.56;5068413;28;20520;-48
2022/08/29 06:09:44;;;;;;;8.15;4.78;;;;;;;15.86;70.95;102260.38;5067840;28;20039;-51
2022/08/29 06:12:12;;;;;;;8.00;4.45;;;;;;;15.96;70.71;102262.41;5072780;28;20032;-50
2022/08/29 06:14:38;;;;;;;11.52;4.90;;;;;;;15.96;70.81;102266.72;5072297;28;20035;-50
2022/08/29 06:17:05;;;;;;;10.27;4.90;;;;;;;15.92;70.90;102264.88;5067641;28;20488;-48
2022/08/29 06:19:33;;;;;;;9.60;5.10;;;;;;;15.96;70.97;102257.22;5063793;28;20028;-51
2022/08/29 06:22:00;;;;;;;10.88;4.97;;;;;;;15.99;70.46;102269.41;5067907;28;20035;-51
2022/08/29 06:24:25;;;;;;;12.18;4.78;;;;;;;16.03;70.11;102255.69;5066872;28;20032;-48
2022/08/29 06:26:51;;;;;;;16.75;4.75;;;;;;;16.02;70.16;102266.91;5065589;28;20795;-46
2022/08/29 06:29:16;;;;;;;8.77;4.60;;;;;;;16.00;69.62;102264.25;5068134;28;20020;-51
2022/08/29 06:31:42;;;;;;;9.50;4.70;;;;;;;16.05;70.23;102266.97;5067439;28;20619;-51
2022/08/29 06:34:08;;;;;;;11.00;5.03;;;;;;;16.04;69.68;102267.81;5073061;28;20497;-47
2022/08/29 06:36:34;;;;;;;8.13;4.38;;;;;;;16.10;70.35;102265.41;5067301;28;20070;-49
2022/08/29 06:39:03;;;;;;;10.93;5.03;;;;;;;16.14;70.13;102269.84;5070422;28;20036;-53
2022/08/29 06:41:29;;;;;;;10.50;5.15;;;;;;;16.15;69.84;102268.13;5071348;28;20038;-52
2022/08/29 06:43:56;;;;;;;13.80;4.72;;;;;;;16.20;69.48;102271.69;5068134;28;20036;-48
2022/08/29 06:46:24;;;;;;;11.95;4.75;;;;;;;16.21;69.89;102278.66;5067823;28;20031;-49
2022/08/29 06:48:50;;;;;;;10.60;5.07;;;;;;;16.27;69.93;102278.84;5068231;28;20028;-48
2022/08/29 06:51:16;;;;;;;11.50;5.20;;;;;;;16.30;70.58;102284.09;5063839;28;20033;-48
2022/08/29 06:53:41;;;;;;;8.07;4.70;;;;;;;16.40;69.89;102288.72;5066015;28;20037;-51
2022/08/29 06:56:07;;;;;;;10.68;4.72;;;;;;;16.39;69.21;102292.16;5065805;28;20418;-53
2022/08/29 06:58:34;;;;;;;12.98;4.97;;;;;;;16.49;68.54;102301.03;5067990;28;20062;-51
2022/08/29 07:01:10;;;;;;;10.30;4.75;;;;;;;16.57;68.59;102296.94;5069216;28;20036;-51
2022/08/29 07:03:36;;;;;;;9.07;5.20;;;;;;;16.57;68.92;102296.94;5068964;28;20396;-53
2022/08/29 07:06:03;;;;;;;10.85;5.65;;;;;;;16.62;69.24;102284.94;5068878;28;20151;-51
2022/08/29 07:08:28;;;;;;;8.77;5.40;;;;;;;16.62;68.92;102293.63;5070335;28;20755;-48
2022/08/29 07:10:53;;;;;;;10.82;5.28;;;;;;;16.76;68.42;102290.53;5076810;28;20073;-52
2022/08/29 07:13:19;;;;;;;11.35;5.30;;;;;;;16.84;67.03;102304.59;5069110;28;20071;-51
2022/08/29 07:15:44;;;;;;;7.60;5.20;;;;;;;16.99;66.95;102294.59;5073815;28;20024;-52
2022/08/29 07:18:09;;;;;;;12.88;5.88;;;;;;;17.14;67.76;102296.66;5072501;28;20039;-50
2022/08/29 07:20:38;;;;;;;9.40;5.80;;;;;;;17.32;68.42;102285.81;5072068;28;20031;-50
2022/08/29 07:23:03;;;;;;;11.52;5.57;;;;;;;17.35;67.32;102289.38;5075289;28;20056;-52
2022/08/29 07:25:29;;;;;;;24.83;6.03;;;;;;;17.47;67.32;102286.16;5075152;28;20110;-53
2022/08/29 07:27:54;;;;;;;14.13;6.03;;;;;;;17.51;67.82;102282.78;5072334;28;20052;-53
2022/08/29 07:30:20;;;;;;;8.10;5.22;;;;;;;17.53;66.38;102282.81;5069978;28;20070;-52
2022/08/29 07:32:45;;;;;;;9.52;5.22;;;;;;;17.48;65.74;102285.34;5071224;28;20032;-52
2022/08/29 07:35:15;;;;;;;11.73;5.07;;;;;;;17.56;65.75;102288.09;5071324;28;20031;-52
2022/08/29 07:37:41;;;;;;;10.23;4.97;;;;;;;17.49;65.66;102287.09;5074030;28;20540;-53
2022/08/29 07:40:08;;;;;;;10.85;5.50;;;;;;;17.54;66.49;102295.00;5067955;28;20157;-51
2022/08/29 07:42:34;;;;;;;10.07;5.28;;;;;;;17.57;66.70;102288.13;5069075;28;20074;-51
2022/08/29 07:45:00;;;;;;;9.88;5.50;;;;;;;17.53;65.62;102282.81;5067809;28;20040;-53
2022/08/29 07:47:26;;;;;;;10.25;5.38;;;;;;;17.60;65.77;102275.19;5070055;28;20037;-51
2022/08/29 07:49:51;;;;;;;13.73;5.50;;;;;;;17.68;65.83;102278.84;5073206;28;20032;-53
2022/08/29 07:52:17;;;;;;;11.13;5.68;;;;;;;17.72;65.35;102271.16;5072178;28;20024;-52
2022/08/29 07:54:42;;;;;;;16.27;5.90;;;;;;;17.77;65.69;102280.78;5074666;28;20603;-52
2022/08/29 07:57:08;;;;;;;8.10;6.25;;;;;;;17.82;64.97;102278.28;5065880;28;20044;-52
2022/08/29 07:59:33;;;;;;;11.57;6.13;;;;;;;17.88;65.76;102275.78;5072013;28;20040;-53
2022/08/29 08:01:58;;;;;;;10.32;6.15;;;;;;;17.90;65.40;102284.53;5068494;28;20039;-48
2022/08/29 08:04:24;;;;;;;12.13;5.88;;;;;;;17.94;64.97;102279.41;5063456;28;20035;-52
2022/08/29 08:06:49;;;;;;;12.00;5.82;;;;;;;17.97;64.71;102277.72;5066177;28;20047;-52
2022/08/29 08:09:14;;;;;;;8.98;5.70;;;;;;;18.03;64.75;102280.44;5069657;28;20044;-47
2022/08/29 08:11:41;;;;;;;11.40;5.82;;;;;;;18.05;64.07;102279.63;5068257;28;20036;-49
2022/08/29 08:14:07;;;;;;;12.45;5.65;;;;;;;18.04;63.18;102277.88;5067023;28;20029;-48
2022/08/29 08:16:33;;;;;;;7.95;5.20;;;;;;;18.08;63.64;102284.91;5066109;28;20107;-55
2022/08/29 08:18:59;;;;;;;10.48;5.50;;;;;;;18.09;63.99;102284.06;5065526;28;20116;-52
2022/08/29 08:21:25;;;;;;;11.90;5.68;;;;;;;18.16;63.61;102291.13;5067630;28;20074;-49
2022/08/29 08:23:51;;;;;;;12.93;5.70;;;;;;;18.22;63.13;102285.16;5058199;28;20578;-52
2022/08/29 08:26:17;;;;;;;9.68;5.47;;;;;;;18.27;62.41;102280.94;5069994;28;20030;-50
2022/08/29 08:28:43;;;;;;;8.88;4.90;;;;;;;18.33;61.57;102283.66;5072007;28;20546;-53
2022/08/29 08:31:10;;;;;;;8.60;4.50;;;;;;;18.35;60.63;102278.47;5069322;28;20012;-50
2022/08/29 08:33:39;;;;;;;8.95;4.70;;;;;;;18.37;61.03;102281.97;5074276;28;20036;-52
2022/08/29 08:36:20;;;;;;;10.65;4.40;;;;;;;18.44;61.49;102289.03;5066151;28;20025;-50
2022/08/29 08:38:47;;;;;;;10.70;5.35;;;;;;;18.44;61.38;102291.63;5076431;28;20036;-52
2022/08/29 08:41:30;;;;;;;13.68;5.20;;;;;;;18.43;60.46;102298.56;5076931;28;20476;-52
2022/08/29 08:43:57;;;;;;;8.70;4.35;;;;;;;18.45;59.50;102296.03;5074538;28;20031;-52
2022/08/29 08:46:37;;;;;;;10.43;4.75;;;;;;;18.50;59.83;102291.75;5067280;28;20494;-48
2022/08/29 08:49:31;;;;;;;11.00;4.80;;;;;;;18.54;59.88;102287.47;5076320;28;20569;-53
2022/08/29 08:52:02;;;;;;;10.45;4.50;;;;;;;18.56;58.67;102289.25;5071453;28;20042;-52
2022/08/29 08:54:33;;;;;;;12.85;4.57;;;;;;;18.64;58.66;102285.06;5065104;28;20040;-50
2022/08/29 08:57:08;;;;;;;10.25;4.13;;;;;;;18.76;59.02;102281.84;5076107;28;20044;-52
2022/08/29 08:59:43;;;;;;;9.13;4.22;;;;;;;18.84;57.95;102276.75;5068801;28;20127;-53
2022/08/29 09:02:30;;;;;;;10.90;3.80;;;;;;;18.93;58.45;102276.91;5070650;28;20059;-51
2022/08/29 09:05:29;;;;;;;10.27;4.00;;;;;;;18.98;58.42;102278.72;5072449;28;20047;-50
2022/08/29 09:08:00;;;;;;;8.23;3.95;;;;;;;18.97;58.60;102282.16;5068504;28;20020;-52
2022/08/29 09:10:51;;;;;;;9.52;3.72;;;;;;;19.01;57.28;102285.72;5069324;28;20983;-52
2022/08/29 09:13:45;;;;;;;8.23;3.83;;;;;;;19.06;57.48;102293.63;5065733;28;20032;-52
2022/08/29 09:16:23;;;;;;;10.20;3.42;;;;;;;19.05;56.75;102284.91;5070906;28;20677;-53
2022/08/29 09:18:48;;;;;;;8.00;3.10;;;;;;;19.03;55.33;102289.22;5069625;28;20444;-53
2022/08/29 09:21:17;;;;;;;9.77;3.20;;;;;;;19.00;55.60;102287.44;5069538;28;20035;-52
2022/08/29 09:23:43;;;;;;;;;;;;;;;19.14;56.45;102286.78;5069781;28;20115;-52
2022/08/29 09:26:08;;;;;;;5.78;2.55;;;;;;;19.03;53.75;102290.09;5067784;28;20878;-53
2022/08/29 09:28:34;;;;;;;7.05;2.55;;;;;;;19.02;53.33;102290.06;5068799;28;20020;-51
2022/08/29 09:31:26;;;;;;;9.95;3.10;;;;;;;19.03;53.69;102297.03;5067936;28;20028;-53
2022/08/29 09:33:55;;;;;;;5.60;2.75;;;;;;;19.02;52.88;102290.94;5067311;28;20020;-49
2022/08/29 09:36:49;;;;;;;;;;;;;;;19.15;53.56;102294.63;5071274;28;21349;-49
2022/08/29 09:39:20;;;;;;;5.97;2.67;;;;;;;19.12;53.91;102299.81;5053035;28;19924;-52
2022/08/29 09:41:57;;;;;;;7.45;3.00;;;;;;;19.13;52.91;102298.06;5066664;28;20533;-47
2022/08/29 09:44:28;;;;;;;6.35;2.92;;;;;;;19.16;52.66;102296.38;5061855;28;20028;-49
2022/08/29 09:47:13;;;;;;;12.32;3.15;;;;;;;19.24;53.67;102299.13;5068690;28;20032;-52
2022/08/29 09:49:41;;;;;;;5.53;2.60;;;;;;;19.31;54.22;102298.34;5069660;28;20043;-49
2022/08/29 09:52:22;;;;;;;6.35;3.20;;;;;;;19.37;53.45;102292.34;5070915;28;20492;-51
2022/08/29 09:54:47;;;;;;;7.15;2.75;;;;;;;19.42;52.68;102291.56;5063957;28;20056;-50
2022/08/29 09:57:15;;;;;;;9.82;3.20;;;;;;;19.50;51.67;102294.28;5068648;28;20053;-53
2022/08/29 09:59:45;;;;;;;7.35;3.00;;;;;;;19.55;51.83;102292.59;5068490;28;20047;-47
2022/08/29 10:02:26;;;;;;;6.75;2.60;;;;;;;19.60;51.70;102288.38;5070090;28;20564;-51
2022/08/29 10:05:01;;;;;;;6.57;2.90;;;;;;;19.61;51.56;102290.13;5065888;28;20039;-50
2022/08/29 10:07:30;;;;;;;6.50;2.70;;;;;;;19.67;51.46;102287.59;5069738;28;20031;-49
2022/08/29 10:10:20;;;;;;;8.55;2.85;;;;;;;19.77;51.83;102284.22;5071600;28;20135;-49
2022/08/29 10:12:52;;;;;;;9.68;3.00;;;;;;;19.85;50.81;102286.06;5062332;28;20538;-49
2022/08/29 10:15:25;;;;;;;7.20;2.70;;;;;;;20.04;51.06;102288.03;5068297;28;20120;-50
2022/08/29 10:18:34;;;;;;;7.55;2.67;;;;;;;20.15;50.52;102286.44;5061673;28;20040;-46
2022/08/29 10:21:40;;;;;;;6.53;3.00;;;;;;;20.30;50.88;102281.34;5047584;28;20036;-49
2022/08/29 10:24:22;;;;;;;6.10;2.85;;;;;;;20.44;49.10;102288.44;5066311;28;20040;-50
2022/08/29 10:27:03;;;;;;;9.02;3.03;;;;;;;20.50;48.85;102280.69;5072095;28;20648;-54
2022/08/29 10:29:37;;;;;;;5.43;2.67;;;;;;;20.54;49.96;102295.56;5073344;28;20015;-51
2022/08/29 10:32:32;;;;;;;8.65;3.58;;;;;;;20.55;49.49;102295.56;5068590;28;20036;-51
2022/08/29 10:34:57;;;;;;;5.82;3.15;;;;;;;20.57;49.11;102291.25;5070113;28;20777;-50
2022/08/29 10:37:35;;;;;;;8.15;3.13;;;;;;;20.60;49.92;102288.66;5063688;28;20067;-50
2022/08/29 10:40:17;;;;;;;9.52;2.92;;;;;;;20.48;49.08;102282.44;5068394;28;20036;-48
2022/08/29 10:42:44;;;;;;;6.47;2.92;;;;;;;20.45;49.03;102283.28;5075582;28;20073;-47
2022/08/29 10:45:38;;;;;;;5.65;2.90;;;;;;;20.65;49.55;102280.88;5076431;28;20028;-48
2022/08/29 10:48:07;;;;;;;7.78;3.10;;;;;;;20.80;49.00;102273.13;5073687;28;20017;-49
2022/08/29 10:50:38;;;;;;;;;;;;;;;20.93;49.46;102271.53;5075222;28;20481;-50
2022/08/29 10:53:23;;;;;;;6.30;2.63;;;;;;;20.82;48.57;102274.03;5080801;28;20360;-49
2022/08/29 10:55:59;;;;;;;5.55;2.80;;;;;;;20.96;48.47;102265.44;5073894;28;20060;-50
2022/08/29 10:58:44;;;;;;;6.65;2.90;;;;;;;21.26;48.35;102251.69;5076338;28;20155;-51
2022/08/29 11:01:16;;;;;;;7.47;2.80;;;;;;;21.45;47.29;102256.16;5071323;28;20477;-48
2022/08/29 11:04:04;;;;;;;6.68;2.70;;;;;;;21.49;46.49;102249.22;5070878;28;20024;-50
2022/08/29 11:06:35;;;;;;;8.93;2.88;;;;;;;21.50;46.23;102250.97;5074840;28;20040;-51
2022/08/29 11:09:12;;;;;;;7.00;2.80;;;;;;;21.59;46.37;102240.53;5074404;28;20506;-50
2022/08/29 11:11:45;;;;;;;7.75;2.63;;;;;;;21.93;45.73;102238.91;5076607;28;20396;-51
2022/08/29 11:14:24;;;;;;;7.55;2.95;;;;;;;22.27;45.82;102246.91;5072805;28;20058;-51
2022/08/29 11:16:53;;;;;;;7.65;2.80;;;;;;;22.49;44.28;102238.16;5074890;28;20107;-52
2022/08/29 11:19:31;;;;;;;12.45;3.10;;;;;;;22.75;43.95;102239.06;5072509;28;20020;-49
2022/08/29 11:22:16;;;;;;;7.47;3.20;;;;;;;22.99;43.54;102232.03;5074329;28;20028;-50
2022/08/29 11:24:44;;;;;;;5.25;2.65;;;;;;;23.10;43.98;102234.66;5069230;28;20056;-49
2022/08/29 11:27:41;;;;;;;7.43;2.90;;;;;;;23.44;44.79;102228.44;5072642;28;20381;-48
2022/08/29 11:30:16;;;;;;;9.65;3.10;;;;;;;23.59;43.97;102221.38;5068808;28;20036;-47
2022/08/29 11:32:52;;;;;;;8.57;3.00;;;;;;;23.82;43.46;102219.53;5071929;28;20039;-47
2022/08/29 11:35:27;;;;;;;6.43;2.92;;;;;;;23.77;42.51;102211.69;5073959;28;20050;-50
2022/08/29 11:38:27;;;;;;;11.32;3.08;;;;;;;24.04;42.73;102215.03;5072227;28;20034;-51